Flight Track Log - Related Links

Times and Time Zones

All times are in EDT time to prevent confusion due to time zone crossing. See the TRS9348 flight status page for this flight to view local times or setup timezone preferences in your user account.

Time Position Orientation Groundspeed Altitude Reporting Facility
EDT Latitude Longitude Course Direction KTS MPH feet Rate Location/Type
Thu 10:56:44 PM 30.2292 -81.8781 341° North 197 227 1,000  Level Jacksonville Center
Thu 10:57:50 PM 30.2958 -81.8822 357° North 253 291 4,400 4,346 Climbing Jacksonville Center
Thu 10:58:51 PM 30.3669 -81.8911 354° North 256 295 10,200 4,500 Climbing Jacksonville Center
Thu 10:59:22 PM 30.4003 -81.8906 North 286 329 11,300 2,703 Climbing Jacksonville Center
Thu 11:00:22 PM 30.4964 -81.8944 358° North 322 371 14,300 2,622 Climbing Jacksonville Center
Thu 11:01:21 PM 30.6072 -81.9053 355° North 361 415 16,500 2,975 Climbing Jacksonville Center
Thu 11:02:00 PM 30.6599 -82.0406 341° North  Level FlightAware Approximate
Thu 11:02:21 PM 30.7097 -81.9528 338° Northwest 380 437 20,200  Level Jacksonville Center
Thu 11:03:21 PM 30.8125 -82.0025 337° Northwest 392 451 23,000 3,600 Climbing Jacksonville Center
Thu 11:04:21 PM 30.9108 -82.0450 340° North 387 445 27,400 2,975 Climbing Jacksonville Center
Thu 11:05:22 PM 31.0094 -82.0950 337° Northwest 381 438 29,000 800 Climbing Jacksonville Center
Thu 11:06:21 PM 31.1203 -82.1475 338° Northwest 397 457 29,000  Level Jacksonville Center
Thu 11:07:21 PM 31.2272 -82.1978 338° Northwest 409 471 29,000  Level Jacksonville Center
Thu 11:08:21 PM 31.3422 -82.2503 339° North 421 484 29,000  Level Jacksonville Center
Thu 11:09:21 PM 31.4531 -82.3008 339° North 426 490 29,000  Level Jacksonville Center
Thu 11:11:08 PM 31.6689 -82.4042 338° Northwest 450 518 29,000  Level Atlanta Center
Thu 11:12:09 PM 31.7825 -82.4581 338° Northwest 450 518 29,000  Level Atlanta Center
Thu 11:13:08 PM 31.8836 -82.5394 326° Northwest 444 511 29,000  Level Atlanta Center
Thu 11:14:08 PM 31.9806 -82.6311 321° Northwest 444 511 29,000  Level Atlanta Center
Thu 11:15:08 PM 32.0756 -82.7203 322° Northwest 439 505 29,000  Level Atlanta Center
Thu 11:16:08 PM 32.1683 -82.8094 321° Northwest 439 505 29,000  Level Atlanta Center
Thu 11:17:08 PM 32.2653 -82.8992 322° Northwest 439 505 29,000  Level Atlanta Center
Thu 11:18:08 PM 32.3600 -82.9864 322° Northwest 434 499 29,000  Level Atlanta Center
Thu 11:19:08 PM 32.4547 -83.0789 321° Northwest 434 499 29,000  Level Atlanta Center
Thu 11:20:08 PM 32.5514 -83.1689 322° Northwest 434 499 29,000  Level Atlanta Center
Thu 11:21:08 PM 32.6458 -83.2592 321° Northwest 439 505 29,000  Level Atlanta Center
Thu 11:22:08 PM 32.7403 -83.3522 320° Northwest 439 505 29,000 -1,200 Level Atlanta Center
Thu 11:23:08 PM 32.8283 -83.4356 322° Northwest 433 498 26,600 -3,050 Descending Atlanta Center
Thu 11:24:08 PM 32.9144 -83.5192 321° Northwest 421 484 22,900 -3,250 Descending Atlanta Center
Thu 11:25:08 PM 32.9919 -83.5956 320° Northwest 401 461 20,100 -2,800 Descending Atlanta Center
Thu 11:26:08 PM 33.0694 -83.6694 321° Northwest 364 419 17,300 -2,750 Descending Atlanta Center
Thu 11:27:08 PM 33.1406 -83.7386 321° Northwest 339 390 14,600 -2,720 Descending Atlanta Center
Thu 11:27:23 PM 33.1667 -83.7500 340° North 333 383 13,900 -2,261 Descending Atlanta TRACON
Thu 11:28:17 PM 33.2167 -83.8167 312° West 316 364 12,000 -1,667 Descending Atlanta TRACON
Thu 11:29:11 PM 33.2667 -83.8833 312° West 271 312 10,900 -1,081 Descending Atlanta TRACON
Thu 11:30:08 PM 33.3017 -83.9419 306° West 274 315 10,000 -1,538 Descending Atlanta Center
Thu 11:31:08 PM 33.3497 -84.0014 314° West 262 302 7,900 -1,700 Descending Atlanta Center
Thu 11:32:08 PM 33.4164 -84.0314 339° North 249 287 6,600 -1,000 Descending Atlanta Center
Thu 11:33:08 PM 33.4750 -84.0536 342° North 232 267 5,900 -900 Descending Atlanta Center
Thu 11:34:08 PM 33.5333 -84.0636 352° North 219 252 4,800 -900 Descending Atlanta Center
Thu 11:35:08 PM 33.5833 -84.0936 333° Northwest 204 235 4,100 -689 Descending Atlanta Center
Thu 11:37:11 PM 33.6167 -84.2000 291° West 169 194 2,700 -459 Descending Atlanta TRACON
Thu 11:38:11 PM 33.6333 -84.2500 292° West 166 191 2,700 -48 Level Atlanta TRACON
Thu 11:39:17 PM 33.6500 -84.3167 287° West 162 186 2,600 -333 Descending Atlanta TRACON
Thu 11:40:17 PM 33.6500 -84.3500 270° West 110 127 2,000 -600 Descending Atlanta TRACON
Thu 11:41:17 PM 33.6500 -84.3833 270° West 109 125 1,400 -600 Descending Atlanta TRACON
Thu 11:43:00 PM 33.6367 -84.4279 270° West  Level Estimated
Thu 11:50:00 PM 33.6367 -84.4279 64° Northeast  Level Estimated

Login

Don't have an account? Register now (free) for customized features, flight alerts, and more!